sensor_id;sensor_type;location;lat;lon;timestamp;P1;durP1;ratioP1;P2;durP2;ratioP2
2618;SDS011;1319;52.346;13.096;2022-12-18T00:03:45;75.27;;;19.33;;
2618;SDS011;1319;52.346;13.096;2022-12-18T00:06:10;69.67;;;19.23;;
2618;SDS011;1319;52.346;13.096;2022-12-18T00:08:36;76.27;;;18.53;;
2618;SDS011;1319;52.346;13.096;2022-12-18T00:11:05;62.93;;;17.43;;
2618;SDS011;1319;52.346;13.096;2022-12-18T00:13:30;73.27;;;18.10;;
2618;SDS011;1319;52.346;13.096;2022-12-18T00:16:00;68.80;;;18.07;;
2618;SDS011;1319;52.346;13.096;2022-12-18T00:18:26;72.03;;;18.57;;
2618;SDS011;1319;52.346;13.096;2022-12-18T00:20:51;76.17;;;19.40;;
2618;SDS011;1319;52.346;13.096;2022-12-18T00:23:16;68.77;;;18.50;;
2618;SDS011;1319;52.346;13.096;2022-12-18T00:25:41;63.73;;;19.00;;
2618;SDS011;1319;52.346;13.096;2022-12-18T00:28:07;70.10;;;19.43;;
2618;SDS011;1319;52.346;13.096;2022-12-18T00:30:32;77.63;;;20.00;;
2618;SDS011;1319;52.346;13.096;2022-12-18T00:32:57;69.40;;;18.30;;
2618;SDS011;1319;52.346;13.096;2022-12-18T00:35:23;67.50;;;18.37;;
2618;SDS011;1319;52.346;13.096;2022-12-18T00:37:48;70.93;;;18.83;;
2618;SDS011;1319;52.346;13.096;2022-12-18T00:40:13;69.03;;;19.40;;
2618;SDS011;1319;52.346;13.096;2022-12-18T00:42:38;58.03;;;17.03;;
2618;SDS011;1319;52.346;13.096;2022-12-18T00:45:26;70.33;;;19.33;;
2618;SDS011;1319;52.346;13.096;2022-12-18T00:47:51;83.93;;;20.03;;
2618;SDS011;1319;52.346;13.096;2022-12-18T00:50:17;87.67;;;21.80;;
2618;SDS011;1319;52.346;13.096;2022-12-18T00:52:42;69.00;;;19.63;;
2618;SDS011;1319;52.346;13.096;2022-12-18T00:55:08;82.50;;;19.53;;
2618;SDS011;1319;52.346;13.096;2022-12-18T00:57:33;86.73;;;21.40;;
2618;SDS011;1319;52.346;13.096;2022-12-18T00:59:59;85.07;;;21.00;;
2618;SDS011;1319;52.346;13.096;2022-12-18T01:02:24;83.37;;;20.17;;
2618;SDS011;1319;52.346;13.096;2022-12-18T01:04:49;88.37;;;20.20;;
2618;SDS011;1319;52.346;13.096;2022-12-18T01:07:15;71.30;;;20.27;;
2618;SDS011;1319;52.346;13.096;2022-12-18T01:09:40;70.57;;;18.90;;
2618;SDS011;1319;52.346;13.096;2022-12-18T01:12:05;75.93;;;20.47;;
2618;SDS011;1319;52.346;13.096;2022-12-18T01:14:31;89.60;;;22.57;;
2618;SDS011;1319;52.346;13.096;2022-12-18T01:16:56;86.80;;;21.37;;
2618;SDS011;1319;52.346;13.096;2022-12-18T01:19:21;74.43;;;19.47;;
2618;SDS011;1319;52.346;13.096;2022-12-18T01:21:47;85.17;;;21.87;;
2618;SDS011;1319;52.346;13.096;2022-12-18T01:24:12;82.87;;;21.13;;
2618;SDS011;1319;52.346;13.096;2022-12-18T01:26:37;77.93;;;19.83;;
2618;SDS011;1319;52.346;13.096;2022-12-18T01:29:02;84.63;;;20.73;;
2618;SDS011;1319;52.346;13.096;2022-12-18T01:31:29;75.97;;;18.67;;
2618;SDS011;1319;52.346;13.096;2022-12-18T01:33:56;67.00;;;17.57;;
2618;SDS011;1319;52.346;13.096;2022-12-18T01:36:22;74.93;;;19.53;;
2618;SDS011;1319;52.346;13.096;2022-12-18T01:38:48;79.70;;;21.17;;
2618;SDS011;1319;52.346;13.096;2022-12-18T01:41:13;70.83;;;20.17;;
2618;SDS011;1319;52.346;13.096;2022-12-18T01:43:41;70.40;;;18.80;;
2618;SDS011;1319;52.346;13.096;2022-12-18T01:46:07;60.53;;;18.00;;
2618;SDS011;1319;52.346;13.096;2022-12-18T01:48:32;72.13;;;20.23;;
2618;SDS011;1319;52.346;13.096;2022-12-18T01:50:57;69.47;;;18.83;;
2618;SDS011;1319;52.346;13.096;2022-12-18T01:53:23;70.33;;;18.77;;
2618;SDS011;1319;52.346;13.096;2022-12-18T01:55:50;66.97;;;19.47;;
2618;SDS011;1319;52.346;13.096;2022-12-18T01:58:15;72.93;;;20.83;;
2618;SDS011;1319;52.346;13.096;2022-12-18T02:00:41;60.77;;;17.20;;
2618;SDS011;1319;52.346;13.096;2022-12-18T02:03:06;71.87;;;19.17;;
2618;SDS011;1319;52.346;13.096;2022-12-18T02:08:08;73.03;;;20.23;;
2618;SDS011;1319;52.346;13.096;2022-12-18T02:18:07;80.83;;;19.37;;
2618;SDS011;1319;52.346;13.096;2022-12-18T02:28:20;76.03;;;19.07;;
2618;SDS011;1319;52.346;13.096;2022-12-18T02:30:46;76.77;;;20.63;;
2618;SDS011;1319;52.346;13.096;2022-12-18T02:33:12;77.93;;;19.90;;
2618;SDS011;1319;52.346;13.096;2022-12-18T02:35:38;67.57;;;20.87;;
2618;SDS011;1319;52.346;13.096;2022-12-18T02:38:05;72.73;;;20.67;;
2618;SDS011;1319;52.346;13.096;2022-12-18T02:40:31;69.00;;;19.23;;
2618;SDS011;1319;52.346;13.096;2022-12-18T02:43:02;72.43;;;20.33;;
2618;SDS011;1319;52.346;13.096;2022-12-18T02:45:27;72.10;;;19.53;;
2618;SDS011;1319;52.346;13.096;2022-12-18T02:47:52;56.03;;;16.07;;
2618;SDS011;1319;52.346;13.096;2022-12-18T02:57:44;76.93;;;19.77;;
2618;SDS011;1319;52.346;13.096;2022-12-18T03:02:51;71.30;;;19.60;;
2618;SDS011;1319;52.346;13.096;2022-12-18T03:05:27;71.90;;;19.87;;
2618;SDS011;1319;52.346;13.096;2022-12-18T03:07:56;68.30;;;18.93;;
2618;SDS011;1319;52.346;13.096;2022-12-18T03:10:29;74.73;;;20.50;;
2618;SDS011;1319;52.346;13.096;2022-12-18T03:13:05;80.70;;;20.87;;
2618;SDS011;1319;52.346;13.096;2022-12-18T03:15:33;79.27;;;21.27;;
2618;SDS011;1319;52.346;13.096;2022-12-18T03:18:01;67.37;;;20.53;;
2618;SDS011;1319;52.346;13.096;2022-12-18T03:20:28;88.10;;;21.70;;
2618;SDS011;1319;52.346;13.096;2022-12-18T03:22:57;66.23;;;19.43;;
2618;SDS011;1319;52.346;13.096;2022-12-18T03:25:25;63.77;;;16.83;;
2618;SDS011;1319;52.346;13.096;2022-12-18T03:27:51;68.23;;;18.67;;
2618;SDS011;1319;52.346;13.096;2022-12-18T03:30:19;61.40;;;15.37;;
2618;SDS011;1319;52.346;13.096;2022-12-18T03:35:13;59.23;;;17.83;;
2618;SDS011;1319;52.346;13.096;2022-12-18T03:37:39;71.83;;;19.57;;
2618;SDS011;1319;52.346;13.096;2022-12-18T03:40:05;62.83;;;16.90;;
2618;SDS011;1319;52.346;13.096;2022-12-18T03:42:40;60.33;;;17.57;;
2618;SDS011;1319;52.346;13.096;2022-12-18T03:50:13;56.30;;;17.13;;
2618;SDS011;1319;52.346;13.096;2022-12-18T03:55:08;60.80;;;17.80;;
2618;SDS011;1319;52.346;13.096;2022-12-18T03:57:34;60.40;;;17.07;;
2618;SDS011;1319;52.346;13.096;2022-12-18T04:00:03;63.00;;;17.60;;
2618;SDS011;1319;52.346;13.096;2022-12-18T04:02:28;57.07;;;16.07;;
2618;SDS011;1319;52.346;13.096;2022-12-18T04:04:57;67.73;;;16.47;;
2618;SDS011;1319;52.346;13.096;2022-12-18T04:07:23;69.17;;;18.80;;
2618;SDS011;1319;52.346;13.096;2022-12-18T04:09:49;57.30;;;16.90;;
2618;SDS011;1319;52.346;13.096;2022-12-18T04:12:15;65.83;;;17.73;;
2618;SDS011;1319;52.346;13.096;2022-12-18T04:14:41;69.27;;;17.97;;
2618;SDS011;1319;52.346;13.096;2022-12-18T04:17:06;64.57;;;17.93;;
2618;SDS011;1319;52.346;13.096;2022-12-18T04:19:31;67.67;;;18.47;;
2618;SDS011;1319;52.346;13.096;2022-12-18T04:21:56;75.67;;;18.07;;
2618;SDS011;1319;52.346;13.096;2022-12-18T04:24:22;58.73;;;18.03;;
2618;SDS011;1319;52.346;13.096;2022-12-18T04:26:47;77.83;;;19.03;;
2618;SDS011;1319;52.346;13.096;2022-12-18T04:29:12;74.53;;;19.97;;
2618;SDS011;1319;52.346;13.096;2022-12-18T04:31:37;60.20;;;17.93;;
2618;SDS011;1319;52.346;13.096;2022-12-18T04:34:03;67.37;;;19.20;;
2618;SDS011;1319;52.346;13.096;2022-12-18T04:36:28;54.37;;;16.80;;
2618;SDS011;1319;52.346;13.096;2022-12-18T04:38:53;57.90;;;16.60;;
2618;SDS011;1319;52.346;13.096;2022-12-18T04:41:19;57.77;;;17.10;;
2618;SDS011;1319;52.346;13.096;2022-12-18T04:43:44;73.43;;;18.73;;
2618;SDS011;1319;52.346;13.096;2022-12-18T04:46:09;66.53;;;18.40;;
2618;SDS011;1319;52.346;13.096;2022-12-18T04:48:35;65.10;;;18.10;;
2618;SDS011;1319;52.346;13.096;2022-12-18T04:51:00;58.30;;;16.33;;
2618;SDS011;1319;52.346;13.096;2022-12-18T04:53:26;69.60;;;16.97;;
2618;SDS011;1319;52.346;13.096;2022-12-18T04:56:02;56.33;;;15.93;;
2618;SDS011;1319;52.346;13.096;2022-12-18T04:58:27;61.37;;;18.07;;
2618;SDS011;1319;52.346;13.096;2022-12-18T05:00:52;61.07;;;17.00;;
2618;SDS011;1319;52.346;13.096;2022-12-18T05:03:18;63.00;;;18.53;;
2618;SDS011;1319;52.346;13.096;2022-12-18T05:05:43;56.13;;;17.07;;
2618;SDS011;1319;52.346;13.096;2022-12-18T05:08:08;59.60;;;17.93;;
2618;SDS011;1319;52.346;13.096;2022-12-18T05:10:33;63.60;;;16.37;;
2618;SDS011;1319;52.346;13.096;2022-12-18T05:12:58;69.87;;;18.90;;
2618;SDS011;1319;52.346;13.096;2022-12-18T05:15:28;65.77;;;18.17;;
2618;SDS011;1319;52.346;13.096;2022-12-18T05:17:53;63.40;;;18.50;;
2618;SDS011;1319;52.346;13.096;2022-12-18T05:20:19;60.40;;;18.23;;
2618;SDS011;1319;52.346;13.096;2022-12-18T05:22:44;61.80;;;17.23;;
2618;SDS011;1319;52.346;13.096;2022-12-18T05:25:09;62.60;;;17.27;;
2618;SDS011;1319;52.346;13.096;2022-12-18T05:27:35;64.93;;;18.07;;
2618;SDS011;1319;52.346;13.096;2022-12-18T05:30:00;67.10;;;18.60;;
2618;SDS011;1319;52.346;13.096;2022-12-18T05:32:25;66.20;;;18.40;;
2618;SDS011;1319;52.346;13.096;2022-12-18T05:34:50;64.73;;;17.50;;
2618;SDS011;1319;52.346;13.096;2022-12-18T05:37:15;62.57;;;18.10;;
2618;SDS011;1319;52.346;13.096;2022-12-18T05:39:42;64.73;;;18.60;;
2618;SDS011;1319;52.346;13.096;2022-12-18T05:42:07;62.17;;;18.17;;
2618;SDS011;1319;52.346;13.096;2022-12-18T05:44:32;61.53;;;18.30;;
2618;SDS011;1319;52.346;13.096;2022-12-18T05:46:57;64.40;;;19.50;;
2618;SDS011;1319;52.346;13.096;2022-12-18T05:49:23;63.60;;;17.47;;
2618;SDS011;1319;52.346;13.096;2022-12-18T05:51:48;60.67;;;17.77;;
2618;SDS011;1319;52.346;13.096;2022-12-18T05:54:13;62.67;;;16.90;;
2618;SDS011;1319;52.346;13.096;2022-12-18T05:56:38;60.20;;;17.00;;
2618;SDS011;1319;52.346;13.096;2022-12-18T05:59:04;63.30;;;19.03;;
2618;SDS011;1319;52.346;13.096;2022-12-18T06:01:29;68.03;;;19.53;;
2618;SDS011;1319;52.346;13.096;2022-12-18T06:03:54;63.10;;;18.60;;
2618;SDS011;1319;52.346;13.096;2022-12-18T06:06:21;63.40;;;18.10;;
2618;SDS011;1319;52.346;13.096;2022-12-18T06:08:47;63.40;;;17.70;;
2618;SDS011;1319;52.346;13.096;2022-12-18T06:11:12;60.10;;;18.23;;
2618;SDS011;1319;52.346;13.096;2022-12-18T06:13:38;59.23;;;18.13;;
2618;SDS011;1319;52.346;13.096;2022-12-18T06:16:04;64.60;;;18.50;;
2618;SDS011;1319;52.346;13.096;2022-12-18T06:18:29;59.57;;;19.53;;
2618;SDS011;1319;52.346;13.096;2022-12-18T06:20:57;70.63;;;20.30;;
2618;SDS011;1319;52.346;13.096;2022-12-18T06:23:23;70.50;;;20.33;;
2618;SDS011;1319;52.346;13.096;2022-12-18T06:25:48;72.47;;;20.43;;
2618;SDS011;1319;52.346;13.096;2022-12-18T06:28:13;54.47;;;17.30;;
2618;SDS011;1319;52.346;13.096;2022-12-18T06:30:39;61.43;;;18.90;;
2618;SDS011;1319;52.346;13.096;2022-12-18T06:33:04;61.73;;;19.07;;
2618;SDS011;1319;52.346;13.096;2022-12-18T06:35:29;67.47;;;18.43;;
2618;SDS011;1319;52.346;13.096;2022-12-18T06:37:54;66.70;;;18.27;;
2618;SDS011;1319;52.346;13.096;2022-12-18T06:40:20;56.57;;;17.93;;
2618;SDS011;1319;52.346;13.096;2022-12-18T06:42:45;60.87;;;17.90;;
2618;SDS011;1319;52.346;13.096;2022-12-18T06:45:10;61.13;;;18.50;;
2618;SDS011;1319;52.346;13.096;2022-12-18T06:47:36;59.10;;;17.37;;
2618;SDS011;1319;52.346;13.096;2022-12-18T06:50:01;58.97;;;18.23;;
2618;SDS011;1319;52.346;13.096;2022-12-18T06:52:27;56.93;;;18.07;;
2618;SDS011;1319;52.346;13.096;2022-12-18T06:54:52;64.10;;;19.93;;
2618;SDS011;1319;52.346;13.096;2022-12-18T06:57:17;67.27;;;20.17;;
2618;SDS011;1319;52.346;13.096;2022-12-18T06:59:43;62.03;;;18.47;;
2618;SDS011;1319;52.346;13.096;2022-12-18T07:02:10;68.50;;;21.43;;
2618;SDS011;1319;52.346;13.096;2022-12-18T07:04:35;58.20;;;19.03;;
2618;SDS011;1319;52.346;13.096;2022-12-18T07:07:00;59.47;;;18.27;;
2618;SDS011;1319;52.346;13.096;2022-12-18T07:09:26;62.00;;;18.50;;
2618;SDS011;1319;52.346;13.096;2022-12-18T07:11:51;58.37;;;19.67;;
2618;SDS011;1319;52.346;13.096;2022-12-18T07:14:16;64.37;;;18.50;;
2618;SDS011;1319;52.346;13.096;2022-12-18T07:16:41;64.50;;;18.83;;
2618;SDS011;1319;52.346;13.096;2022-12-18T07:19:07;63.57;;;19.57;;
2618;SDS011;1319;52.346;13.096;2022-12-18T07:21:32;64.77;;;19.90;;
2618;SDS011;1319;52.346;13.096;2022-12-18T07:23:57;56.40;;;18.87;;
2618;SDS011;1319;52.346;13.096;2022-12-18T07:26:23;62.80;;;19.63;;
2618;SDS011;1319;52.346;13.096;2022-12-18T07:28:48;61.07;;;19.63;;
2618;SDS011;1319;52.346;13.096;2022-12-18T07:31:16;68.63;;;19.83;;
2618;SDS011;1319;52.346;13.096;2022-12-18T07:33:41;64.03;;;20.47;;
2618;SDS011;1319;52.346;13.096;2022-12-18T07:36:07;59.80;;;20.20;;
2618;SDS011;1319;52.346;13.096;2022-12-18T07:38:33;64.00;;;20.87;;
2618;SDS011;1319;52.346;13.096;2022-12-18T07:43:27;65.27;;;21.13;;
2618;SDS011;1319;52.346;13.096;2022-12-18T07:45:52;66.40;;;19.97;;
2618;SDS011;1319;52.346;13.096;2022-12-18T07:48:17;72.90;;;22.63;;
2618;SDS011;1319;52.346;13.096;2022-12-18T07:50:43;63.47;;;20.80;;
2618;SDS011;1319;52.346;13.096;2022-12-18T07:53:08;63.87;;;20.23;;
2618;SDS011;1319;52.346;13.096;2022-12-18T07:55:34;60.07;;;18.37;;
2618;SDS011;1319;52.346;13.096;2022-12-18T07:58:02;63.43;;;19.73;;
2618;SDS011;1319;52.346;13.096;2022-12-18T08:00:28;68.50;;;20.97;;
2618;SDS011;1319;52.346;13.096;2022-12-18T08:02:53;66.20;;;19.23;;
2618;SDS011;1319;52.346;13.096;2022-12-18T08:05:19;56.33;;;19.03;;
2618;SDS011;1319;52.346;13.096;2022-12-18T08:07:45;59.80;;;20.43;;
2618;SDS011;1319;52.346;13.096;2022-12-18T08:10:10;62.87;;;19.47;;
2618;SDS011;1319;52.346;13.096;2022-12-18T08:12:36;57.10;;;20.17;;
2618;SDS011;1319;52.346;13.096;2022-12-18T08:15:01;63.60;;;20.03;;
2618;SDS011;1319;52.346;13.096;2022-12-18T08:17:26;59.43;;;19.10;;
2618;SDS011;1319;52.346;13.096;2022-12-18T08:19:51;55.57;;;19.20;;
2618;SDS011;1319;52.346;13.096;2022-12-18T08:22:17;53.07;;;18.77;;
2618;SDS011;1319;52.346;13.096;2022-12-18T08:24:42;64.90;;;20.03;;
2618;SDS011;1319;52.346;13.096;2022-12-18T08:27:07;56.77;;;18.00;;
2618;SDS011;1319;52.346;13.096;2022-12-18T08:29:32;58.40;;;17.97;;
2618;SDS011;1319;52.346;13.096;2022-12-18T08:31:58;54.17;;;18.80;;
2618;SDS011;1319;52.346;13.096;2022-12-18T08:34:24;56.57;;;19.30;;
2618;SDS011;1319;52.346;13.096;2022-12-18T08:36:49;56.50;;;19.37;;
2618;SDS011;1319;52.346;13.096;2022-12-18T08:39:14;47.57;;;17.53;;
2618;SDS011;1319;52.346;13.096;2022-12-18T08:41:39;49.63;;;17.70;;
2618;SDS011;1319;52.346;13.096;2022-12-18T08:44:06;51.10;;;18.37;;
2618;SDS011;1319;52.346;13.096;2022-12-18T08:46:50;46.03;;;16.93;;
2618;SDS011;1319;52.346;13.096;2022-12-18T08:49:16;51.00;;;17.43;;
2618;SDS011;1319;52.346;13.096;2022-12-18T08:51:41;44.97;;;17.03;;
2618;SDS011;1319;52.346;13.096;2022-12-18T08:54:06;49.63;;;18.07;;
2618;SDS011;1319;52.346;13.096;2022-12-18T08:56:32;47.90;;;15.93;;
2618;SDS011;1319;52.346;13.096;2022-12-18T08:58:58;55.53;;;16.57;;
2618;SDS011;1319;52.346;13.096;2022-12-18T09:01:23;52.60;;;17.87;;
2618;SDS011;1319;52.346;13.096;2022-12-18T09:03:49;50.53;;;17.87;;
2618;SDS011;1319;52.346;13.096;2022-12-18T09:06:15;49.27;;;17.90;;
2618;SDS011;1319;52.346;13.096;2022-12-18T09:08:41;46.77;;;16.67;;
2618;SDS011;1319;52.346;13.096;2022-12-18T09:11:11;47.07;;;16.07;;
2618;SDS011;1319;52.346;13.096;2022-12-18T09:13:37;49.03;;;16.13;;
2618;SDS011;1319;52.346;13.096;2022-12-18T09:16:03;45.90;;;15.93;;
2618;SDS011;1319;52.346;13.096;2022-12-18T09:18:28;44.87;;;16.67;;
2618;SDS011;1319;52.346;13.096;2022-12-18T09:20:53;44.37;;;16.17;;
2618;SDS011;1319;52.346;13.096;2022-12-18T09:23:18;43.63;;;15.50;;
2618;SDS011;1319;52.346;13.096;2022-12-18T09:25:44;44.70;;;15.80;;
2618;SDS011;1319;52.346;13.096;2022-12-18T09:28:10;52.27;;;16.37;;
2618;SDS011;1319;52.346;13.096;2022-12-18T09:30:37;53.40;;;18.83;;
2618;SDS011;1319;52.346;13.096;2022-12-18T09:33:02;52.33;;;18.30;;
2618;SDS011;1319;52.346;13.096;2022-12-18T09:35:28;50.93;;;16.83;;
2618;SDS011;1319;52.346;13.096;2022-12-18T09:37:53;53.50;;;19.10;;
2618;SDS011;1319;52.346;13.096;2022-12-18T09:40:20;53.83;;;19.70;;
2618;SDS011;1319;52.346;13.096;2022-12-18T09:42:46;47.17;;;16.07;;
2618;SDS011;1319;52.346;13.096;2022-12-18T09:45:14;50.67;;;17.43;;
2618;SDS011;1319;52.346;13.096;2022-12-18T09:47:40;48.27;;;17.70;;
2618;SDS011;1319;52.346;13.096;2022-12-18T09:50:29;51.83;;;18.83;;
2618;SDS011;1319;52.346;13.096;2022-12-18T09:52:54;56.50;;;19.73;;
2618;SDS011;1319;52.346;13.096;2022-12-18T09:57:56;47.07;;;16.13;;
2618;SDS011;1319;52.346;13.096;2022-12-18T10:00:23;49.43;;;17.60;;
2618;SDS011;1319;52.346;13.096;2022-12-18T10:02:49;43.57;;;15.00;;
2618;SDS011;1319;52.346;13.096;2022-12-18T10:05:17;48.87;;;18.33;;
2618;SDS011;1319;52.346;13.096;2022-12-18T10:07:49;45.10;;;17.07;;
2618;SDS011;1319;52.346;13.096;2022-12-18T10:12:51;46.43;;;17.83;;
2618;SDS011;1319;52.346;13.096;2022-12-18T10:15:22;50.60;;;17.20;;
2618;SDS011;1319;52.346;13.096;2022-12-18T10:18:02;43.13;;;17.03;;
2618;SDS011;1319;52.346;13.096;2022-12-18T10:20:41;46.80;;;16.23;;
2618;SDS011;1319;52.346;13.096;2022-12-18T10:28:00;56.97;;;19.97;;
2618;SDS011;1319;52.346;13.096;2022-12-18T10:30:32;55.10;;;18.93;;
2618;SDS011;1319;52.346;13.096;2022-12-18T10:33:00;57.63;;;18.73;;
2618;SDS011;1319;52.346;13.096;2022-12-18T10:35:26;53.90;;;19.63;;
2618;SDS011;1319;52.346;13.096;2022-12-18T10:40:32;48.37;;;18.67;;
2618;SDS011;1319;52.346;13.096;2022-12-18T10:43:05;47.70;;;17.73;;
2618;SDS011;1319;52.346;13.096;2022-12-18T10:45:31;46.33;;;17.10;;
2618;SDS011;1319;52.346;13.096;2022-12-18T10:47:56;52.53;;;17.67;;
2618;SDS011;1319;52.346;13.096;2022-12-18T10:50:34;42.23;;;15.33;;
2618;SDS011;1319;52.346;13.096;2022-12-18T10:53:01;42.90;;;16.50;;
2618;SDS011;1319;52.346;13.096;2022-12-18T10:55:31;45.23;;;17.00;;
2618;SDS011;1319;52.346;13.096;2022-12-18T10:58:02;38.73;;;14.93;;
2618;SDS011;1319;52.346;13.096;2022-12-18T11:00:38;44.70;;;17.73;;
2618;SDS011;1319;52.346;13.096;2022-12-18T11:03:07;47.00;;;14.93;;
2618;SDS011;1319;52.346;13.096;2022-12-18T11:05:48;43.20;;;15.73;;
2618;SDS011;1319;52.346;13.096;2022-12-18T11:08:25;43.73;;;16.37;;
2618;SDS011;1319;52.346;13.096;2022-12-18T11:10:51;47.13;;;16.67;;
2618;SDS011;1319;52.346;13.096;2022-12-18T11:13:17;45.07;;;16.03;;
2618;SDS011;1319;52.346;13.096;2022-12-18T11:15:43;41.17;;;15.20;;
2618;SDS011;1319;52.346;13.096;2022-12-18T11:18:16;42.53;;;16.13;;
2618;SDS011;1319;52.346;13.096;2022-12-18T11:20:41;42.93;;;15.00;;
2618;SDS011;1319;52.346;13.096;2022-12-18T11:23:11;43.43;;;15.57;;
2618;SDS011;1319;52.346;13.096;2022-12-18T11:25:37;40.03;;;14.67;;
2618;SDS011;1319;52.346;13.096;2022-12-18T11:28:04;40.13;;;14.80;;
2618;SDS011;1319;52.346;13.096;2022-12-18T11:30:31;38.20;;;14.77;;
2618;SDS011;1319;52.346;13.096;2022-12-18T11:35:25;47.63;;;16.03;;
2618;SDS011;1319;52.346;13.096;2022-12-18T11:37:54;40.77;;;16.37;;
2618;SDS011;1319;52.346;13.096;2022-12-18T11:40:30;41.23;;;15.67;;
2618;SDS011;1319;52.346;13.096;2022-12-18T11:43:09;39.47;;;13.77;;
2618;SDS011;1319;52.346;13.096;2022-12-18T11:45:35;33.67;;;13.13;;
2618;SDS011;1319;52.346;13.096;2022-12-18T11:48:22;35.13;;;13.30;;
2618;SDS011;1319;52.346;13.096;2022-12-18T11:50:56;37.43;;;14.50;;
2618;SDS011;1319;52.346;13.096;2022-12-18T11:53:22;36.97;;;14.60;;
2618;SDS011;1319;52.346;13.096;2022-12-18T11:55:50;40.13;;;14.20;;
2618;SDS011;1319;52.346;13.096;2022-12-18T12:00:58;36.17;;;14.50;;
2618;SDS011;1319;52.346;13.096;2022-12-18T12:06:12;40.23;;;15.20;;
2618;SDS011;1319;52.346;13.096;2022-12-18T12:08:53;41.10;;;14.27;;
2618;SDS011;1319;52.346;13.096;2022-12-18T12:16:35;35.67;;;13.00;;
2618;SDS011;1319;52.346;13.096;2022-12-18T12:19:22;37.67;;;14.20;;
2618;SDS011;1319;52.346;13.096;2022-12-18T12:39:46;30.37;;;11.97;;
2618;SDS011;1319;52.346;13.096;2022-12-18T12:45:11;31.67;;;13.60;;
2618;SDS011;1319;52.346;13.096;2022-12-18T12:47:39;31.13;;;12.70;;
2618;SDS011;1319;52.346;13.096;2022-12-18T12:50:11;35.07;;;13.83;;
2618;SDS011;1319;52.346;13.096;2022-12-18T12:52:39;29.17;;;12.53;;
2618;SDS011;1319;52.346;13.096;2022-12-18T12:55:07;32.63;;;12.97;;
2618;SDS011;1319;52.346;13.096;2022-12-18T12:57:39;37.03;;;13.77;;
2618;SDS011;1319;52.346;13.096;2022-12-18T13:00:14;34.53;;;14.20;;
2618;SDS011;1319;52.346;13.096;2022-12-18T13:07:54;36.13;;;14.03;;
2618;SDS011;1319;52.346;13.096;2022-12-18T13:10:25;31.70;;;13.50;;
2618;SDS011;1319;52.346;13.096;2022-12-18T13:15:49;30.60;;;12.63;;
2618;SDS011;1319;52.346;13.096;2022-12-18T13:18:27;34.77;;;13.43;;
2618;SDS011;1319;52.346;13.096;2022-12-18T13:25:51;34.00;;;13.80;;
2618;SDS011;1319;52.346;13.096;2022-12-18T13:28:18;31.80;;;13.47;;
2618;SDS011;1319;52.346;13.096;2022-12-18T13:30:52;30.30;;;13.07;;
2618;SDS011;1319;52.346;13.096;2022-12-18T13:38:25;34.23;;;13.87;;
2618;SDS011;1319;52.346;13.096;2022-12-18T13:40:57;30.13;;;12.30;;
2618;SDS011;1319;52.346;13.096;2022-12-18T13:43:29;37.03;;;15.03;;
2618;SDS011;1319;52.346;13.096;2022-12-18T13:48:24;36.03;;;14.97;;
2618;SDS011;1319;52.346;13.096;2022-12-18T13:50:56;37.17;;;15.67;;
2618;SDS011;1319;52.346;13.096;2022-12-18T13:53:23;38.07;;;16.33;;
2618;SDS011;1319;52.346;13.096;2022-12-18T13:55:49;40.43;;;15.33;;
2618;SDS011;1319;52.346;13.096;2022-12-18T13:58:15;34.40;;;13.70;;
2618;SDS011;1319;52.346;13.096;2022-12-18T14:00:41;34.63;;;15.27;;
2618;SDS011;1319;52.346;13.096;2022-12-18T14:03:23;35.13;;;14.50;;
2618;SDS011;1319;52.346;13.096;2022-12-18T14:05:52;38.47;;;16.17;;
2618;SDS011;1319;52.346;13.096;2022-12-18T14:08:18;39.90;;;16.50;;
2618;SDS011;1319;52.346;13.096;2022-12-18T14:10:44;37.30;;;16.60;;
2618;SDS011;1319;52.346;13.096;2022-12-18T14:13:10;39.47;;;15.73;;
2618;SDS011;1319;52.346;13.096;2022-12-18T14:15:39;40.93;;;16.87;;
2618;SDS011;1319;52.346;13.096;2022-12-18T14:18:22;38.07;;;17.00;;
2618;SDS011;1319;52.346;13.096;2022-12-18T14:20:49;45.93;;;17.17;;
2618;SDS011;1319;52.346;13.096;2022-12-18T14:25:58;42.80;;;16.60;;
2618;SDS011;1319;52.346;13.096;2022-12-18T14:28:24;38.00;;;15.83;;
2618;SDS011;1319;52.346;13.096;2022-12-18T14:30:51;44.63;;;17.47;;
2618;SDS011;1319;52.346;13.096;2022-12-18T14:33:17;25.43;;;11.77;;
2618;SDS011;1319;52.346;13.096;2022-12-18T14:35:53;33.67;;;14.77;;
2618;SDS011;1319;52.346;13.096;2022-12-18T14:40:47;33.07;;;14.10;;
2618;SDS011;1319;52.346;13.096;2022-12-18T14:43:13;32.10;;;14.53;;
2618;SDS011;1319;52.346;13.096;2022-12-18T14:45:39;33.20;;;14.47;;
2618;SDS011;1319;52.346;13.096;2022-12-18T14:50:40;29.17;;;13.17;;
2618;SDS011;1319;52.346;13.096;2022-12-18T14:53:05;36.23;;;15.23;;
2618;SDS011;1319;52.346;13.096;2022-12-18T14:55:31;30.50;;;13.83;;
2618;SDS011;1319;52.346;13.096;2022-12-18T14:57:56;35.60;;;14.67;;
2618;SDS011;1319;52.346;13.096;2022-12-18T15:00:22;38.07;;;15.07;;
2618;SDS011;1319;52.346;13.096;2022-12-18T15:02:52;32.50;;;13.00;;
2618;SDS011;1319;52.346;13.096;2022-12-18T15:05:20;41.13;;;16.63;;
2618;SDS011;1319;52.346;13.096;2022-12-18T15:07:52;38.43;;;15.27;;
2618;SDS011;1319;52.346;13.096;2022-12-18T15:10:31;40.27;;;16.80;;
2618;SDS011;1319;52.346;13.096;2022-12-18T15:18:05;42.23;;;18.10;;
2618;SDS011;1319;52.346;13.096;2022-12-18T15:23:05;49.60;;;18.53;;
2618;SDS011;1319;52.346;13.096;2022-12-18T15:25:37;45.83;;;19.07;;
2618;SDS011;1319;52.346;13.096;2022-12-18T15:28:03;47.33;;;19.23;;
2618;SDS011;1319;52.346;13.096;2022-12-18T15:30:29;54.13;;;19.43;;
2618;SDS011;1319;52.346;13.096;2022-12-18T15:35:38;48.13;;;19.03;;
2618;SDS011;1319;52.346;13.096;2022-12-18T15:38:04;48.53;;;19.47;;
2618;SDS011;1319;52.346;13.096;2022-12-18T15:40:29;53.17;;;19.13;;
2618;SDS011;1319;52.346;13.096;2022-12-18T15:42:54;48.73;;;18.63;;
2618;SDS011;1319;52.346;13.096;2022-12-18T15:45:38;45.43;;;17.33;;
2618;SDS011;1319;52.346;13.096;2022-12-18T15:48:22;51.20;;;18.57;;
2618;SDS011;1319;52.346;13.096;2022-12-18T15:50:48;42.97;;;18.07;;
2618;SDS011;1319;52.346;13.096;2022-12-18T15:53:13;50.00;;;19.87;;
2618;SDS011;1319;52.346;13.096;2022-12-18T15:55:39;44.93;;;18.13;;
2618;SDS011;1319;52.346;13.096;2022-12-18T15:58:22;43.63;;;17.80;;
2618;SDS011;1319;52.346;13.096;2022-12-18T16:00:48;47.97;;;18.23;;
2618;SDS011;1319;52.346;13.096;2022-12-18T16:03:13;47.53;;;17.63;;
2618;SDS011;1319;52.346;13.096;2022-12-18T16:05:38;44.87;;;17.70;;
2618;SDS011;1319;52.346;13.096;2022-12-18T16:08:04;44.07;;;17.20;;
2618;SDS011;1319;52.346;13.096;2022-12-18T16:10:29;44.90;;;18.13;;
2618;SDS011;1319;52.346;13.096;2022-12-18T16:12:54;42.60;;;17.77;;
2618;SDS011;1319;52.346;13.096;2022-12-18T16:15:20;45.27;;;17.93;;
2618;SDS011;1319;52.346;13.096;2022-12-18T16:17:46;49.23;;;17.60;;
2618;SDS011;1319;52.346;13.096;2022-12-18T16:20:12;44.37;;;17.77;;
2618;SDS011;1319;52.346;13.096;2022-12-18T16:22:39;44.93;;;17.20;;
2618;SDS011;1319;52.346;13.096;2022-12-18T16:25:05;51.93;;;18.93;;
2618;SDS011;1319;52.346;13.096;2022-12-18T16:27:30;46.37;;;16.80;;
2618;SDS011;1319;52.346;13.096;2022-12-18T16:29:55;42.37;;;16.37;;
2618;SDS011;1319;52.346;13.096;2022-12-18T16:32:21;43.77;;;15.33;;
2618;SDS011;1319;52.346;13.096;2022-12-18T16:34:47;38.27;;;16.03;;
2618;SDS011;1319;52.346;13.096;2022-12-18T16:37:13;42.97;;;17.10;;
2618;SDS011;1319;52.346;13.096;2022-12-18T16:39:38;51.40;;;17.60;;
2618;SDS011;1319;52.346;13.096;2022-12-18T16:42:10;41.57;;;16.50;;